createdAt,value
2016-09-14T00:00:41.218Z,22.65
2016-09-14T00:01:41.208Z,22.7
2016-09-14T00:02:41.190Z,22.55
2016-09-14T00:03:41.173Z,22.6
2016-09-14T00:04:41.151Z,22.63
2016-09-14T00:05:41.136Z,22.57
2016-09-14T00:06:41.115Z,22.62
2016-09-14T00:07:41.098Z,22.6
2016-09-14T00:08:41.079Z,22.6
2016-09-14T00:09:41.064Z,22.47
2016-09-14T00:10:41.043Z,22.57
2016-09-14T00:11:41.029Z,22.48
2016-09-14T00:12:41.008Z,22.45
2016-09-14T00:13:40.990Z,22.47
2016-09-14T00:14:40.973Z,22.47
2016-09-14T00:15:40.957Z,22.48
2016-09-14T00:16:40.937Z,22.32
2016-09-14T00:17:40.921Z,22.43
2016-09-14T00:18:40.902Z,22.44
2016-09-14T00:19:40.887Z,22.43
2016-09-14T00:20:40.866Z,22.39
2016-09-14T00:21:40.851Z,22.39
2016-09-14T00:22:40.827Z,22.35
2016-09-14T00:23:40.816Z,22.26
2016-09-14T00:24:40.793Z,22.29
2016-09-14T00:25:40.778Z,22.3
2016-09-14T00:26:41.054Z,22.3
2016-09-14T00:27:40.741Z,22.29
2016-09-14T00:28:40.723Z,22.28
2016-09-14T00:29:40.707Z,22.3
2016-09-14T00:30:40.687Z,22.29
2016-09-14T00:31:40.680Z,22.22
2016-09-14T00:32:40.651Z,22.15
2016-09-14T00:33:40.935Z,22.3
2016-09-14T00:34:40.617Z,22.14
2016-09-14T00:35:40.601Z,22.14
2016-09-14T00:36:40.584Z,22.18
2016-09-14T00:37:40.561Z,22.14
2016-09-14T00:38:40.545Z,22.13
2016-09-14T00:39:40.526Z,22.15
2016-09-14T00:40:40.510Z,22.04
2016-09-14T00:41:40.497Z,22.06
2016-09-14T00:42:40.475Z,22.07
2016-09-14T00:43:40.455Z,22.02
2016-09-14T00:44:40.438Z,22.04
2016-09-14T00:45:40.424Z,21.99
2016-09-14T00:46:40.403Z,21.91
2016-09-14T00:47:40.392Z,21.89
2016-09-14T00:48:40.374Z,21.93
2016-09-14T00:49:40.351Z,21.95
2016-09-14T00:50:40.331Z,21.95
2016-09-14T00:51:40.313Z,21.89
2016-09-14T00:52:40.293Z,21.83
2016-09-14T00:53:40.274Z,21.89
2016-09-14T00:54:40.255Z,21.76
2016-09-14T00:55:40.241Z,21.8
2016-09-14T00:56:40.219Z,21.76
2016-09-14T00:57:40.200Z,21.76
2016-09-14T00:58:40.184Z,21.76
2016-09-14T00:59:40.167Z,21.66
2016-09-14T01:00:40.148Z,21.73
2016-09-14T01:01:40.132Z,21.7
2016-09-14T01:02:40.112Z,21.66
2016-09-14T01:03:40.096Z,21.61
2016-09-14T01:04:40.081Z,21.69
2016-09-14T01:05:40.059Z,21.64
2016-09-14T01:06:40.038Z,21.64
2016-09-14T01:07:40.022Z,21.62
2016-09-14T01:08:40.002Z,21.6
2016-09-14T01:09:39.989Z,21.62
2016-09-14T01:10:39.964Z,21.54
2016-09-14T01:11:39.950Z,21.55
2016-09-14T01:12:40.223Z,21.54
2016-09-14T01:13:39.910Z,21.45
2016-09-14T01:14:39.889Z,21.51
2016-09-14T01:15:40.174Z,21.55
2016-09-14T01:16:39.854Z,21.48
2016-09-14T01:17:39.835Z,21.43
2016-09-14T01:18:39.819Z,21.5
2016-09-14T01:19:39.797Z,21.4
2016-09-14T01:20:39.780Z,21.4
2016-09-14T01:21:39.762Z,21.42
2016-09-14T01:22:39.743Z,21.46
2016-09-14T01:23:39.723Z,21.42
2016-09-14T01:24:39.703Z,21.37
2016-09-14T01:25:39.687Z,21.42
2016-09-14T01:26:39.669Z,21.36
2016-09-14T01:27:39.651Z,21.25
2016-09-14T01:28:39.630Z,21.24
2016-09-14T01:29:39.614Z,21.25
2016-09-14T01:30:39.597Z,21.24
2016-09-14T01:31:39.583Z,21.27
2016-09-14T01:32:39.568Z,21.2
2016-09-14T01:33:39.545Z,21.29
2016-09-14T01:34:39.524Z,21.29
2016-09-14T01:35:39.506Z,21.17
2016-09-14T01:36:39.487Z,21.3
2016-09-14T01:37:39.468Z,21.27
2016-09-14T01:38:39.448Z,21.17
2016-09-14T01:39:39.429Z,21.2
2016-09-14T01:40:39.413Z,21.17
2016-09-14T01:41:39.393Z,21.2
2016-09-14T01:42:39.374Z,21.17
2016-09-14T01:43:39.356Z,21.22
2016-09-14T01:44:39.338Z,21.11
2016-09-14T01:45:39.318Z,21.15
2016-09-14T01:46:39.303Z,21.09
2016-09-14T01:47:39.278Z,21.05
2016-09-14T01:48:39.270Z,21.12
2016-09-14T01:49:39.245Z,21.07
2016-09-14T01:50:39.225Z,21.06
2016-09-14T01:51:39.201Z,21.09
2016-09-14T01:52:39.191Z,20.97
2016-09-14T01:53:39.167Z,21.02
2016-09-14T01:54:39.146Z,21.03
2016-09-14T01:55:39.126Z,20.97
2016-09-14T01:56:39.111Z,20.96
2016-09-14T01:57:39.090Z,20.96
2016-09-14T01:58:39.071Z,20.96
2016-09-14T01:59:39.057Z,20.96
2016-09-14T02:00:39.035Z,20.92
2016-09-14T02:01:39.015Z,20.93
2016-09-14T02:02:38.994Z,20.92
2016-09-14T02:03:38.981Z,20.93
2016-09-14T02:04:38.958Z,20.93
2016-09-14T02:05:38.936Z,20.93
2016-09-14T02:06:38.938Z,20.87
2016-09-14T02:07:39.200Z,20.85
2016-09-14T02:08:38.884Z,20.82
2016-09-14T02:09:38.866Z,20.84
2016-09-14T02:10:38.845Z,20.8
2016-09-14T02:11:38.825Z,20.82
2016-09-14T02:12:38.813Z,20.75
2016-09-14T02:13:38.786Z,20.8
2016-09-14T02:14:38.766Z,20.82
2016-09-14T02:15:38.749Z,20.74
2016-09-14T02:16:38.732Z,20.78
2016-09-14T02:17:38.713Z,20.84
2016-09-14T02:18:38.693Z,20.82
2016-09-14T02:19:38.669Z,20.77
2016-09-14T02:20:38.656Z,20.77
2016-09-14T02:21:38.633Z,20.72
2016-09-14T02:22:38.618Z,20.74
2016-09-14T02:23:38.599Z,20.7
2016-09-14T02:24:38.581Z,20.75
2016-09-14T02:25:38.556Z,20.66
2016-09-14T02:26:38.541Z,20.65
2016-09-14T02:27:38.534Z,20.67
2016-09-14T02:28:38.502Z,20.67
2016-09-14T02:29:38.492Z,20.66
2016-09-14T02:30:38.468Z,20.66
2016-09-14T02:31:38.448Z,20.65
2016-09-14T02:32:38.424Z,20.58
2016-09-14T02:33:38.407Z,20.56
2016-09-14T02:34:38.391Z,20.55
2016-09-14T02:35:38.371Z,20.52
2016-09-14T02:36:38.351Z,20.52
2016-09-14T02:37:38.330Z,20.51
2016-09-14T02:38:38.316Z,20.51
2016-09-14T02:39:38.295Z,20.41
2016-09-14T02:40:38.278Z,20.51
2016-09-14T02:41:38.557Z,20.43
2016-09-14T02:42:38.240Z,20.5
2016-09-14T02:43:38.214Z,20.43
2016-09-14T02:44:38.200Z,20.48
2016-09-14T02:45:38.179Z,20.51
2016-09-14T02:46:38.160Z,20.43
2016-09-14T02:47:38.141Z,20.43
2016-09-14T02:48:38.117Z,20.47
2016-09-14T02:49:38.100Z,20.4
2016-09-14T02:50:38.079Z,20.41
2016-09-14T02:51:38.061Z,20.4
2016-09-14T02:52:38.039Z,20.36
2016-09-14T02:53:38.029Z,20.31
2016-09-14T02:54:38.004Z,20.36
2016-09-14T02:55:37.987Z,20.39
2016-09-14T02:56:37.974Z,20.4
2016-09-14T02:57:37.949Z,20.34
2016-09-14T02:58:37.924Z,20.41
2016-09-14T02:59:37.908Z,20.34
2016-09-14T03:00:37.909Z,20.4
2016-09-14T03:01:37.871Z,20.29
2016-09-14T03:02:37.847Z,20.28
2016-09-14T03:03:37.831Z,20.34
2016-09-14T03:04:37.814Z,20.37
2016-09-14T03:05:37.793Z,20.29
2016-09-14T03:06:37.778Z,20.28
2016-09-14T03:07:37.753Z,20.25
2016-09-14T03:08:37.736Z,20.22
2016-09-14T03:09:38.010Z,20.24
2016-09-14T03:10:37.698Z,20.25
2016-09-14T03:11:37.674Z,20.24
2016-09-14T03:12:37.659Z,20.14
2016-09-14T03:13:37.639Z,20.22
2016-09-14T03:14:37.617Z,20.28
2016-09-14T03:15:37.600Z,20.21
2016-09-14T03:16:37.577Z,20.28
2016-09-14T03:17:37.564Z,20.25
2016-09-14T03:18:37.544Z,20.19
2016-09-14T03:19:37.536Z,20.21
2016-09-14T03:20:37.501Z,20.21
2016-09-14T03:21:37.482Z,20.18
2016-09-14T03:22:37.464Z,20.22
2016-09-14T03:23:37.443Z,20.21
2016-09-14T03:24:37.423Z,20.16
2016-09-14T03:25:37.404Z,20.19
2016-09-14T03:26:37.382Z,20.22
2016-09-14T03:27:37.376Z,20.21
2016-09-14T03:28:37.347Z,20.18
2016-09-14T03:29:37.343Z,20.21
2016-09-14T03:30:37.309Z,20.24
2016-09-14T03:31:37.288Z,20.22
2016-09-14T03:32:37.267Z,20.19
2016-09-14T03:33:37.256Z,20.16
2016-09-14T03:34:37.235Z,20.16
2016-09-14T03:35:37.217Z,20.19
2016-09-14T03:36:37.487Z,20.19
2016-09-14T03:37:37.173Z,20.06
2016-09-14T03:38:37.157Z,20.06
2016-09-14T03:39:37.134Z,20.14
2016-09-14T03:40:37.113Z,20.16
2016-09-14T03:41:37.092Z,20.18
2016-09-14T03:42:37.077Z,20.19
2016-09-14T03:43:37.050Z,20.04
2016-09-14T03:44:37.042Z,20.09
2016-09-14T03:45:37.018Z,20.14
2016-09-14T03:46:36.995Z,20.07
2016-09-14T03:47:36.975Z,20.02
2016-09-14T03:48:36.955Z,20.04
2016-09-14T03:49:37.031Z,20.02
2016-09-14T03:50:36.916Z,20.09
2016-09-14T03:51:36.905Z,20.09
2016-09-14T03:52:36.878Z,20.04
2016-09-14T03:53:36.866Z,20.02
2016-09-14T03:54:36.837Z,20.07
2016-09-14T03:55:36.819Z,20.09
2016-09-14T03:56:36.797Z,20.02
2016-09-14T03:57:36.783Z,20.06
2016-09-14T03:58:36.763Z,20.03
2016-09-14T03:59:36.745Z,19.94
2016-09-14T04:00:36.717Z,20.03
2016-09-14T04:01:36.702Z,19.95
2016-09-14T04:02:36.685Z,19.96
2016-09-14T04:03:36.662Z,19.92
2016-09-14T04:04:36.644Z,19.96
2016-09-14T04:05:36.622Z,19.99
2016-09-14T04:06:36.606Z,19.96
2016-09-14T04:07:36.578Z,19.94
2016-09-14T04:08:36.566Z,19.94
2016-09-14T04:09:36.552Z,19.96
2016-09-14T04:10:36.525Z,19.88
2016-09-14T04:11:36.505Z,19.91
2016-09-14T04:13:36.464Z,19.91
2016-09-14T04:14:36.446Z,19.89
2016-09-14T04:15:36.434Z,19.94
2016-09-14T04:16:36.411Z,19.86
2016-09-14T04:17:36.396Z,19.84
2016-09-14T04:18:36.369Z,19.91
2016-09-14T04:19:36.350Z,19.94
2016-09-14T04:20:36.332Z,20.02
2016-09-14T04:21:36.312Z,19.99
2016-09-14T04:22:36.291Z,19.99
2016-09-14T04:23:36.271Z,19.99
2016-09-14T04:24:36.251Z,19.95
2016-09-14T04:25:36.240Z,19.92
2016-09-14T04:26:36.215Z,19.94
2016-09-14T04:27:36.189Z,19.95
2016-09-14T04:28:36.175Z,19.92
2016-09-14T04:29:36.446Z,19.94
2016-09-14T04:30:36.136Z,19.94
2016-09-14T04:31:36.114Z,19.96
2016-09-14T04:32:36.093Z,20
2016-09-14T04:33:36.076Z,19.91
2016-09-14T04:34:36.056Z,19.92
2016-09-14T04:35:36.037Z,19.91
2016-09-14T04:36:36.015Z,19.95
2016-09-14T04:37:35.996Z,19.92
2016-09-14T04:38:35.973Z,19.86
2016-09-14T04:39:35.962Z,19.86
2016-09-14T04:40:35.941Z,19.91
2016-09-14T04:41:36.214Z,19.86
2016-09-14T04:42:35.905Z,19.88
2016-09-14T04:43:35.886Z,19.89
2016-09-14T04:44:35.860Z,19.86
2016-09-14T04:45:35.843Z,19.86
2016-09-14T04:46:35.823Z,19.84
2016-09-14T04:47:35.799Z,19.89
2016-09-14T04:48:35.785Z,19.91
2016-09-14T04:49:35.763Z,19.86
2016-09-14T04:50:35.741Z,19.89
2016-09-14T04:51:35.723Z,19.89
2016-09-14T04:52:35.703Z,19.92
2016-09-14T04:53:35.686Z,19.91
2016-09-14T04:54:35.660Z,19.94
2016-09-14T04:55:35.643Z,19.91
2016-09-14T04:56:35.619Z,19.92
2016-09-14T04:57:35.614Z,19.89
2016-09-14T04:58:35.581Z,19.81
2016-09-14T04:59:35.564Z,19.91
2016-09-14T05:00:35.548Z,19.85
2016-09-14T05:01:35.525Z,19.88
2016-09-14T05:02:35.505Z,19.92
2016-09-14T05:03:35.487Z,19.86
2016-09-14T05:04:35.469Z,19.85
2016-09-14T05:05:35.448Z,19.88
2016-09-14T05:06:35.428Z,19.82
2016-09-14T05:07:35.406Z,19.85
2016-09-14T05:08:35.447Z,19.85
2016-09-14T05:09:35.367Z,19.86
2016-09-14T05:10:35.349Z,19.85
2016-09-14T05:11:35.331Z,19.85
2016-09-14T05:12:35.309Z,19.91
2016-09-14T05:13:35.289Z,19.91
2016-09-14T05:14:35.271Z,19.92
2016-09-14T05:15:35.252Z,19.85
2016-09-14T05:16:35.233Z,19.89
2016-09-14T05:17:35.212Z,19.89
2016-09-14T05:18:35.193Z,19.89
2016-09-14T05:19:35.184Z,19.92
2016-09-14T05:20:35.153Z,19.95
2016-09-14T05:21:35.133Z,19.95
2016-09-14T05:22:35.113Z,20.02
2016-09-14T05:23:35.096Z,19.95
2016-09-14T05:24:35.078Z,19.94
2016-09-14T05:25:35.055Z,19.96
2016-09-14T05:26:35.035Z,19.99
2016-09-14T05:27:35.016Z,20
2016-09-14T05:28:34.996Z,19.94
2016-09-14T05:29:34.979Z,19.95
2016-09-14T05:30:34.962Z,20.04
2016-09-14T05:31:34.936Z,20.04
2016-09-14T05:32:34.919Z,20.11
2016-09-14T05:33:34.898Z,20.07
2016-09-14T05:34:34.879Z,20.07
2016-09-14T05:35:34.864Z,20.06
2016-09-14T05:36:34.841Z,20.09
2016-09-14T05:37:34.873Z,20.14
2016-09-14T05:38:34.804Z,20.21
2016-09-14T05:39:34.779Z,20.18
2016-09-14T05:40:34.763Z,20.18
2016-09-14T05:41:34.747Z,20.19
2016-09-14T05:42:34.723Z,20.22
2016-09-14T05:43:34.702Z,20.25
2016-09-14T05:44:34.694Z,20.26
2016-09-14T05:45:34.667Z,20.28
2016-09-14T05:46:34.645Z,20.36
2016-09-14T05:47:34.626Z,20.31
2016-09-14T05:48:34.615Z,20.41
2016-09-14T05:49:34.588Z,20.44
2016-09-14T05:50:34.572Z,20.43
2016-09-14T05:51:34.554Z,20.43
2016-09-14T05:52:34.531Z,20.4
2016-09-14T05:53:34.812Z,20.58
2016-09-14T05:54:34.493Z,20.55
2016-09-14T05:55:34.475Z,20.52
2016-09-14T05:56:34.457Z,20.51
2016-09-14T05:57:34.439Z,20.59
2016-09-14T05:58:34.418Z,20.62
2016-09-14T05:59:34.398Z,20.58
2016-09-14T06:00:34.379Z,20.6
2016-09-14T06:01:34.363Z,20.62
2016-09-14T06:02:34.345Z,20.7
2016-09-14T06:03:34.327Z,20.67
2016-09-14T06:04:34.311Z,20.74
2016-09-14T06:05:34.286Z,20.72
2016-09-14T06:06:34.266Z,20.8
2016-09-14T06:07:34.247Z,20.82
2016-09-14T06:08:34.232Z,20.82
2016-09-14T06:09:34.214Z,20.85
2016-09-14T06:10:34.197Z,20.93
2016-09-14T06:11:34.174Z,20.96
2016-09-14T06:12:34.157Z,20.92
2016-09-14T06:13:34.140Z,20.96
2016-09-14T06:14:34.123Z,21
2016-09-14T06:15:34.105Z,21.02
2016-09-14T06:16:34.082Z,21.02
2016-09-14T06:17:34.063Z,21.06
2016-09-14T06:18:34.052Z,21.05
2016-09-14T06:19:34.030Z,21.05
2016-09-14T06:20:34.022Z,21.17
2016-09-14T06:21:33.990Z,21.07
2016-09-14T06:22:33.974Z,21.2
2016-09-14T06:23:33.954Z,21.29
2016-09-14T06:24:33.938Z,21.35
2016-09-14T06:25:33.921Z,21.22
2016-09-14T06:26:33.896Z,21.36
2016-09-14T06:27:33.882Z,21.33
2016-09-14T06:28:33.865Z,21.37
2016-09-14T06:29:33.848Z,21.35
2016-09-14T06:30:33.828Z,21.43
2016-09-14T06:31:33.809Z,21.4
2016-09-14T06:32:33.791Z,21.37
2016-09-14T06:33:33.771Z,21.37
2016-09-14T06:34:33.755Z,21.39
2016-09-14T06:35:33.739Z,21.45
2016-09-14T06:36:33.721Z,21.48
2016-09-14T06:37:33.703Z,21.46
2016-09-14T06:38:33.688Z,21.5
2016-09-14T06:39:33.666Z,21.5
2016-09-14T06:40:33.651Z,21.62
2016-09-14T06:41:33.639Z,21.62
2016-09-14T06:42:33.612Z,21.64
2016-09-14T06:43:33.592Z,21.66
2016-09-14T06:44:33.582Z,21.6
2016-09-14T06:45:33.557Z,21.61
2016-09-14T06:46:33.538Z,21.7
2016-09-14T06:47:33.526Z,21.73
2016-09-14T06:48:33.505Z,21.77
2016-09-14T06:49:33.490Z,21.75
2016-09-14T06:50:33.466Z,21.82
2016-09-14T06:51:33.452Z,21.82
2016-09-14T06:52:33.431Z,21.88
2016-09-14T06:53:33.417Z,21.95
2016-09-14T06:54:33.403Z,21.93
2016-09-14T06:55:33.381Z,21.96
2016-09-14T06:56:33.364Z,22.04
2016-09-14T06:57:33.347Z,22.1
2016-09-14T06:58:33.329Z,22.11
2016-09-14T06:59:33.311Z,22.17
2016-09-14T07:00:33.294Z,22.18
2016-09-14T07:01:33.275Z,22.18
2016-09-14T07:02:33.263Z,22.18
2016-09-14T07:03:33.239Z,22.3
2016-09-14T07:04:33.224Z,22.26
2016-09-14T07:05:33.208Z,22.41
2016-09-14T07:06:33.191Z,22.33
2016-09-14T07:07:33.173Z,22.41
2016-09-14T07:08:33.154Z,22.38
2016-09-14T07:09:33.139Z,22.43
2016-09-14T07:10:33.119Z,22.5
2016-09-14T07:11:33.104Z,22.43
2016-09-14T07:12:33.157Z,22.59
2016-09-14T07:13:33.070Z,22.6
2016-09-14T07:14:33.050Z,22.55
2016-09-14T07:15:33.035Z,22.6
2016-09-14T07:16:33.018Z,22.65
2016-09-14T07:17:33.001Z,22.68
2016-09-14T07:18:32.984Z,22.66
2016-09-14T07:19:32.968Z,22.8
2016-09-14T07:20:32.950Z,22.76
2016-09-14T07:21:32.931Z,22.78
2016-09-14T07:22:32.916Z,22.88
2016-09-14T07:23:32.906Z,22.98
2016-09-14T07:24:32.885Z,22.93
2016-09-14T07:25:32.869Z,22.99
2016-09-14T07:26:32.847Z,23.06
2016-09-14T07:27:32.835Z,22.99
2016-09-14T07:28:32.813Z,23.02
2016-09-14T07:29:32.799Z,23.12
2016-09-14T07:30:32.782Z,23.12
2016-09-14T07:31:32.768Z,23.21
2016-09-14T07:32:32.746Z,23.23
2016-09-14T07:33:32.734Z,23.34
2016-09-14T07:34:32.719Z,23.32
2016-09-14T07:35:32.700Z,23.23
2016-09-14T07:36:32.686Z,23.37
2016-09-14T07:37:32.668Z,23.39
2016-09-14T07:38:32.658Z,23.43
2016-09-14T07:39:32.634Z,23.44
2016-09-14T07:40:32.620Z,23.5
2016-09-14T07:41:32.603Z,23.58
2016-09-14T07:42:32.586Z,23.59
2016-09-14T07:43:32.569Z,23.61
2016-09-14T07:44:32.553Z,23.63
2016-09-14T07:45:32.543Z,23.65
2016-09-14T07:46:32.520Z,23.63
2016-09-14T07:47:32.504Z,23.73
2016-09-14T07:48:32.490Z,23.78
2016-09-14T07:49:32.471Z,23.83
2016-09-14T07:50:32.460Z,23.83
2016-09-14T07:51:32.438Z,24.02
2016-09-14T07:52:32.426Z,23.95
2016-09-14T07:53:32.409Z,24.02
2016-09-14T07:54:32.391Z,24.06
2016-09-14T07:55:32.377Z,23.98
2016-09-14T07:56:32.363Z,24.16
2016-09-14T07:57:32.347Z,24.18
2016-09-14T07:58:32.330Z,24.23
2016-09-14T07:59:32.312Z,24.24
2016-09-14T08:00:32.294Z,24.32
2016-09-14T08:01:32.283Z,24.4
2016-09-14T08:02:32.264Z,24.3
2016-09-14T08:03:32.251Z,24.42
2016-09-14T08:04:32.235Z,24.53
2016-09-14T08:05:32.218Z,24.54
2016-09-14T08:06:32.213Z,24.61
2016-09-14T08:07:32.188Z,24.7
2016-09-14T08:08:32.171Z,24.66
2016-09-14T08:09:32.566Z,24.77
2016-09-14T08:10:32.149Z,24.81
2016-09-14T08:11:32.134Z,24.88
2016-09-14T08:12:32.109Z,24.84
2016-09-14T08:13:32.099Z,24.92
2016-09-14T08:14:32.081Z,24.93
2016-09-14T08:15:32.067Z,24.99
2016-09-14T08:16:32.046Z,24.93
2016-09-14T08:17:32.042Z,24.99
2016-09-14T08:18:32.021Z,25.1
2016-09-14T08:19:32.005Z,25.11
2016-09-14T08:20:31.995Z,25.1
2016-09-14T08:21:32.275Z,25.22
2016-09-14T08:22:31.959Z,25.25
2016-09-14T08:23:32.088Z,25.36
2016-09-14T08:24:31.963Z,25.4
2016-09-14T08:25:31.912Z,25.33
2016-09-14T08:26:31.899Z,25.48
2016-09-14T08:27:31.881Z,25.5
2016-09-14T08:28:31.867Z,25.55
2016-09-14T08:29:31.852Z,25.6
2016-09-14T08:30:31.847Z,25.63
2016-09-14T08:31:32.118Z,25.66
2016-09-14T08:32:31.813Z,25.81
2016-09-14T08:33:31.799Z,25.85
2016-09-14T08:34:31.780Z,25.84
2016-09-14T08:35:31.764Z,25.88
2016-09-14T08:36:31.751Z,25.87
2016-09-14T08:37:31.741Z,26.02
2016-09-14T08:38:31.717Z,25.93
2016-09-14T08:39:31.708Z,26.05
2016-09-14T08:40:31.696Z,26.15
2016-09-14T08:41:31.673Z,26.21
2016-09-14T08:42:31.661Z,26.28
2016-09-14T08:43:31.648Z,26.34
2016-09-14T08:44:31.636Z,26.37
2016-09-14T08:45:31.621Z,26.44
2016-09-14T08:46:31.903Z,26.48
2016-09-14T08:47:31.587Z,26.51
2016-09-14T08:48:31.578Z,26.56
2016-09-14T08:49:31.561Z,26.7
2016-09-14T08:50:31.547Z,26.6
2016-09-14T08:51:31.627Z,26.6
2016-09-14T08:52:31.519Z,26.7
2016-09-14T08:53:31.516Z,26.8
2016-09-14T08:54:31.488Z,26.83
2016-09-14T08:55:31.479Z,26.8
2016-09-14T08:56:31.464Z,26.88
2016-09-14T08:57:31.447Z,27.03
2016-09-14T08:58:31.914Z,27.03
2016-09-14T08:59:31.420Z,27.07
2016-09-14T09:00:31.405Z,27.05
2016-09-14T09:01:31.393Z,27.14
2016-09-14T09:02:31.377Z,27.2
2016-09-14T09:03:31.364Z,27.22
2016-09-14T09:04:31.353Z,27.35
2016-09-14T09:05:31.337Z,27.37
2016-09-14T09:06:31.325Z,27.49
2016-09-14T09:07:31.308Z,27.54
2016-09-14T09:08:31.298Z,27.6
2016-09-14T09:09:31.286Z,27.64
2016-09-14T09:10:31.271Z,27.64
2016-09-14T09:11:31.253Z,27.65
2016-09-14T09:12:31.249Z,27.7
2016-09-14T09:13:31.231Z,27.78
2016-09-14T09:14:31.212Z,27.87
2016-09-14T09:15:31.202Z,27.87
2016-09-14T09:16:31.190Z,27.86
2016-09-14T09:17:31.174Z,28.02
2016-09-14T09:18:31.163Z,27.98
2016-09-14T09:19:31.147Z,28.02
2016-09-14T09:20:31.134Z,28.08
2016-09-14T09:21:31.121Z,28.14
2016-09-14T09:22:31.110Z,28.15
2016-09-14T09:23:31.101Z,28.29
2016-09-14T09:24:31.085Z,28.2
2016-09-14T09:25:31.068Z,28.32
2016-09-14T09:26:31.073Z,28.38
2016-09-14T09:27:31.045Z,28.38
2016-09-14T09:28:31.027Z,28.35
2016-09-14T09:29:31.033Z,28.42
2016-09-14T09:30:31.000Z,28.45
2016-09-14T09:31:30.990Z,28.47
2016-09-14T09:32:30.986Z,28.52
2016-09-14T09:33:30.971Z,28.6
2016-09-14T09:34:30.952Z,28.6
2016-09-14T09:35:30.940Z,28.57
2016-09-14T09:36:30.927Z,28.7
2016-09-14T09:37:30.916Z,28.74
2016-09-14T09:38:30.905Z,28.84
2016-09-14T09:39:30.893Z,28.89
2016-09-14T09:40:30.879Z,28.88
2016-09-14T09:41:30.863Z,28.98
2016-09-14T09:42:30.849Z,28.97
2016-09-14T09:43:30.836Z,29.08
2016-09-14T09:44:30.822Z,29.02
2016-09-14T09:45:30.813Z,29.1
2016-09-14T09:46:30.803Z,29.2
2016-09-14T09:47:30.785Z,29.24
2016-09-14T09:48:30.775Z,29.23
2016-09-14T09:49:30.776Z,29.26
2016-09-14T09:50:30.747Z,29.26
2016-09-14T09:51:30.736Z,29.34
2016-09-14T09:52:30.725Z,29.29
2016-09-14T09:53:30.718Z,29.39
2016-09-14T09:54:30.705Z,29.41
2016-09-14T09:55:30.687Z,29.42
2016-09-14T09:56:30.679Z,29.41
2016-09-14T09:57:30.667Z,29.42
2016-09-14T09:58:30.659Z,29.53
2016-09-14T09:59:30.642Z,29.49
2016-09-14T10:00:30.630Z,29.63
2016-09-14T10:01:30.616Z,29.54
2016-09-14T10:02:30.603Z,29.63
2016-09-14T10:03:30.591Z,29.73
2016-09-14T10:04:30.585Z,29.72
2016-09-14T10:05:30.569Z,29.72
2016-09-14T10:06:30.555Z,29.73
2016-09-14T10:07:30.550Z,29.76
2016-09-14T10:08:30.534Z,29.78
2016-09-14T10:09:30.520Z,29.86
2016-09-14T10:10:30.507Z,29.88
2016-09-14T10:11:30.494Z,29.84
2016-09-14T10:12:30.483Z,29.95
2016-09-14T10:13:30.487Z,30.03
2016-09-14T10:14:30.469Z,30
2016-09-14T10:15:30.448Z,29.97
2016-09-14T10:16:30.746Z,30.1
2016-09-14T10:17:30.428Z,30.09
2016-09-14T10:18:30.415Z,30.18
2016-09-14T10:19:30.404Z,30.09
2016-09-14T10:20:30.392Z,30.19
2016-09-14T10:21:30.375Z,30.09
2016-09-14T10:22:30.387Z,30.21
2016-09-14T10:23:30.352Z,30.15
2016-09-14T10:24:30.349Z,30.13
2016-09-14T10:25:30.331Z,30.23
2016-09-14T10:26:30.322Z,30.23
2016-09-14T10:27:30.312Z,30.24
2016-09-14T10:28:30.298Z,30.27
2016-09-14T10:29:30.285Z,30.21
2016-09-14T10:30:30.278Z,30.32
2016-09-14T10:31:30.262Z,30.35
2016-09-14T10:32:30.252Z,30.39
2016-09-14T10:33:30.242Z,30.35
2016-09-14T10:34:30.229Z,30.37
2016-09-14T10:35:30.340Z,30.46
2016-09-14T10:36:30.207Z,30.46
2016-09-14T10:37:30.195Z,30.46
2016-09-14T10:38:30.180Z,30.63
2016-09-14T10:39:30.173Z,30.63
2016-09-14T10:40:30.162Z,30.7
2016-09-14T10:41:30.150Z,30.57
2016-09-14T10:42:30.140Z,30.62
2016-09-14T10:43:30.134Z,30.66
2016-09-14T10:44:30.115Z,30.72
2016-09-14T10:45:30.116Z,30.9
2016-09-14T10:46:30.226Z,30.84
2016-09-14T10:47:30.086Z,30.9
2016-09-14T10:48:30.072Z,30.88
2016-09-14T10:49:30.056Z,30.87
2016-09-14T10:50:30.050Z,30.97
2016-09-14T10:51:30.039Z,31.02
2016-09-14T10:52:30.026Z,31
2016-09-14T10:53:30.016Z,31.02
2016-09-14T10:54:30.010Z,31.06
2016-09-14T10:55:29.992Z,31.07
2016-09-14T10:56:29.982Z,31.06
2016-09-14T10:57:29.972Z,31.05
2016-09-14T10:58:29.970Z,31.09
2016-09-14T10:59:29.950Z,31.15
2016-09-14T11:00:29.936Z,31.17
2016-09-14T11:01:29.931Z,31.22
2016-09-14T11:02:29.918Z,31.21
2016-09-14T11:03:29.907Z,31.34
2016-09-14T11:04:29.900Z,31.4
2016-09-14T11:05:29.888Z,31.42
2016-09-14T11:06:29.873Z,31.46
2016-09-14T11:07:29.864Z,31.49
2016-09-14T11:08:29.863Z,31.52
2016-09-14T11:09:29.853Z,31.52
2016-09-14T11:10:29.834Z,31.51
2016-09-14T11:11:29.822Z,31.61
2016-09-14T11:12:29.815Z,31.64
2016-09-14T11:13:29.803Z,31.69
2016-09-14T11:14:29.789Z,31.65
2016-09-14T11:15:29.781Z,31.7
2016-09-14T11:16:29.770Z,31.87
2016-09-14T11:17:29.761Z,31.85
2016-09-14T11:18:29.747Z,31.9
2016-09-14T11:19:29.740Z,31.78
2016-09-14T11:20:29.727Z,31.81
2016-09-14T11:21:29.736Z,31.85
2016-09-14T11:22:29.710Z,31.87
2016-09-14T11:23:29.696Z,31.92
2016-09-14T11:24:29.692Z,31.85
2016-09-14T11:25:29.677Z,31.89
2016-09-14T11:26:29.671Z,31.9
2016-09-14T11:27:29.659Z,31.97
2016-09-14T11:28:29.650Z,32.07
2016-09-14T11:29:29.643Z,32
2016-09-14T11:30:29.632Z,32.11
2016-09-14T11:31:29.622Z,32.11
2016-09-14T11:32:29.611Z,32.23
2016-09-14T11:33:29.603Z,32.26
2016-09-14T11:34:29.590Z,32.33
2016-09-14T11:35:29.584Z,32.3
2016-09-14T11:36:29.572Z,32.31
2016-09-14T11:37:29.562Z,32.27
2016-09-14T11:38:29.552Z,32.31
2016-09-14T11:39:30.149Z,32.33
2016-09-14T11:40:29.546Z,32.31
2016-09-14T11:41:29.988Z,32.34
2016-09-14T11:42:29.516Z,32.37
2016-09-14T11:43:29.502Z,32.36
2016-09-14T11:44:29.507Z,32.29
2016-09-14T11:45:29.483Z,32.26
2016-09-14T11:46:29.478Z,32.33
2016-09-14T11:47:29.465Z,32.36
2016-09-14T11:48:29.456Z,32.33
2016-09-14T11:49:29.451Z,32.26
2016-09-14T11:50:29.439Z,32.31
2016-09-14T11:51:29.485Z,32.26
2016-09-14T11:52:29.508Z,32.22
2016-09-14T11:53:30.005Z,32.36
2016-09-14T11:54:29.399Z,32.34
2016-09-14T11:55:29.410Z,32.41
2016-09-14T11:56:29.380Z,32.41
2016-09-14T11:57:29.373Z,32.43
2016-09-14T11:58:29.363Z,32.41
2016-09-14T11:59:29.356Z,32.48
2016-09-14T12:00:29.341Z,32.52
2016-09-14T12:01:29.336Z,32.52
2016-09-14T12:02:29.322Z,32.64
2016-09-14T12:03:29.312Z,32.67
2016-09-14T12:04:29.301Z,32.73
2016-09-14T12:05:29.297Z,32.75
2016-09-14T12:06:29.284Z,32.8
2016-09-14T12:07:29.274Z,32.75
2016-09-14T12:08:29.265Z,32.83
2016-09-14T12:09:29.259Z,32.75
2016-09-14T12:10:29.250Z,32.86
2016-09-14T12:11:29.239Z,32.89
2016-09-14T12:12:29.242Z,32.96
2016-09-14T12:13:29.217Z,33
2016-09-14T12:14:29.208Z,33.17
2016-09-14T12:15:29.200Z,33.2
2016-09-14T12:16:29.188Z,33.32
2016-09-14T12:17:29.182Z,33.37
2016-09-14T12:18:29.174Z,33.39
2016-09-14T12:19:29.174Z,33.43
2016-09-14T12:20:29.159Z,33.4
2016-09-14T12:21:29.147Z,33.46
2016-09-14T12:22:29.139Z,33.52
2016-09-14T12:23:29.131Z,33.62
2016-09-14T12:24:29.118Z,33.59
2016-09-14T12:25:29.114Z,33.71
2016-09-14T12:26:29.105Z,33.67
2016-09-14T12:27:29.097Z,33.81
2016-09-14T12:28:29.088Z,33.8
2016-09-14T12:29:29.079Z,33.94
2016-09-14T12:30:29.078Z,34.01
2016-09-14T12:31:29.060Z,34.1
2016-09-14T12:32:29.053Z,34.1
2016-09-14T12:33:29.044Z,34.1
2016-09-14T12:34:29.037Z,34.05
2016-09-14T12:35:29.027Z,34.02
2016-09-14T12:36:29.022Z,33.95
2016-09-14T12:37:29.010Z,33.95
2016-09-14T12:38:29.011Z,34.02
2016-09-14T12:39:28.994Z,33.99
2016-09-14T12:40:29.131Z,34.11
2016-09-14T12:41:28.978Z,34.06
2016-09-14T12:42:28.973Z,34.05
2016-09-14T12:43:28.963Z,34.05
2016-09-14T12:44:28.956Z,34.1
2016-09-14T12:45:28.950Z,34.08
2016-09-14T12:46:28.941Z,34.13
2016-09-14T12:47:28.932Z,34.24
2016-09-14T12:48:28.924Z,34.21
2016-09-14T12:49:28.915Z,34.24
2016-09-14T12:50:28.910Z,34.13
2016-09-14T12:51:28.897Z,34.18
2016-09-14T12:52:28.891Z,34.16
2016-09-14T12:53:28.884Z,34.23
2016-09-14T12:54:28.875Z,34.24
2016-09-14T12:55:28.868Z,34.23
2016-09-14T12:56:28.860Z,34.25
2016-09-14T12:57:28.849Z,34.39